Time;durP1;ratioP1;P1;durP2;ratioP2;P2;SDS_P1;SDS_P2;PMS_P1;PMS_P2;Temp;Humidity;BMP_temperature;BMP_pressure;BME280_temperature;BME280_humidity;BME280_pressure;Samples;Min_cycle;Max_cycle;Signal;HPM_P1;HPM_P2
2021/06/07 00:00:58;;;;;;;14.10;12.00;;;18.70;99.90;;;;;;5122166;28;20475;-83
2021/06/07 00:03:24;;;;;;;19.03;12.80;;;18.70;99.90;;;;;;5139296;28;20184;-84
2021/06/07 00:05:51;;;;;;;13.53;12.20;;;18.70;99.90;;;;;;5136168;28;21010;-84
2021/06/07 00:08:17;;;;;;;15.43;12.93;;;18.70;99.90;;;;;;5097647;28;20488;-84
2021/06/07 00:10:44;;;;;;;12.67;11.40;;;18.60;99.90;;;;;;5139736;28;20376;-82
2021/06/07 00:13:11;;;;;;;13.50;12.10;;;18.60;99.90;;;;;;5139406;28;20387;-83
2021/06/07 00:15:37;;;;;;;15.50;11.97;;;18.60;99.90;;;;;;5140403;28;20376;-81
2021/06/07 00:18:05;;;;;;;14.10;12.73;;;18.60;99.90;;;;;;5141661;28;20418;-82
2021/06/07 00:20:37;;;;;;;13.20;12.00;;;18.60;99.90;;;;;;5141422;28;20457;-81
2021/06/07 00:23:04;;;;;;;16.07;14.47;;;18.60;99.90;;;;;;5140641;28;20417;-82
2021/06/07 00:25:30;;;;;;;15.73;13.50;;;18.60;99.90;;;;;;5098451;28;20409;-83
2021/06/07 00:27:56;;;;;;;13.83;12.43;;;18.60;99.90;;;;;;5136264;28;20415;-82
2021/06/07 00:30:22;;;;;;;13.87;11.90;;;18.60;99.90;;;;;;5099119;28;20191;-83
2021/06/07 00:32:48;;;;;;;15.10;13.60;;;18.60;99.90;;;;;;5136724;28;20408;-83
2021/06/07 00:35:20;;;;;;;13.20;11.90;;;18.60;99.90;;;;;;5135547;28;20479;-83
2021/06/07 00:37:46;;;;;;;13.30;12.10;;;18.60;99.90;;;;;;5095406;28;20405;-82
2021/06/07 00:40:12;;;;;;;14.10;12.80;;;18.50;99.90;;;;;;5116791;28;20419;-82
2021/06/07 00:42:38;;;;;;;14.40;12.37;;;18.50;99.90;;;;;;5105017;28;20218;-80
2021/06/07 00:45:11;;;;;;;13.63;12.33;;;18.60;99.90;;;;;;5139672;28;20396;-81
2021/06/07 00:47:38;;;;;;;14.60;13.30;;;18.50;99.90;;;;;;5121536;28;20459;-82
2021/06/07 00:50:10;;;;;;;13.93;12.43;;;18.50;99.90;;;;;;5139055;28;20384;-82
2021/06/07 00:52:36;;;;;;;16.60;14.90;;;18.50;99.90;;;;;;5138848;28;20388;-81
2021/06/07 00:55:05;;;;;;;13.73;12.30;;;18.50;99.90;;;;;;5135875;28;20410;-83
2021/06/07 00:57:31;;;;;;;14.13;12.63;;;18.50;99.90;;;;;;5132524;28;20395;-83
2021/06/07 00:59:57;;;;;;;17.40;13.70;;;18.50;99.90;;;;;;5111152;28;20418;-83
2021/06/07 01:02:23;;;;;;;17.07;13.57;;;18.50;99.90;;;;;;5131988;28;20162;-83
2021/06/07 01:04:48;;;;;;;14.27;12.77;;;18.50;99.90;;;;;;5133443;28;20396;-83
2021/06/07 01:07:15;;;;;;;17.80;15.13;;;18.50;99.90;;;;;;5112594;28;20236;-83
2021/06/07 01:09:40;;;;;;;14.10;12.70;;;18.40;99.90;;;;;;5132287;28;20395;-82
2021/06/07 01:12:06;;;;;;;14.40;13.00;;;18.50;99.90;;;;;;5133304;28;20448;-83
2021/06/07 01:14:32;;;;;;;15.37;13.73;;;18.50;99.90;;;;;;5115372;28;20199;-83
2021/06/07 01:16:59;;;;;;;15.60;14.10;;;18.40;99.90;;;;;;5132150;28;20392;-83
2021/06/07 01:19:27;;;;;;;15.03;12.90;;;18.40;99.90;;;;;;5132425;28;20178;-83
2021/06/07 01:22:02;;;;;;;13.63;12.27;;;18.40;99.90;;;;;;5132624;28;20392;-82
2021/06/07 01:24:29;;;;;;;15.33;13.53;;;18.40;99.90;;;;;;5131869;28;20391;-83
2021/06/07 01:26:55;;;;;;;12.50;11.30;;;18.40;99.90;;;;;;5131926;28;20444;-83
2021/06/07 01:29:21;;;;;;;14.30;12.80;;;18.40;99.90;;;;;;5113036;28;20378;-83
2021/06/07 01:31:47;;;;;;;14.33;12.67;;;18.40;99.90;;;;;;5134197;28;20384;-83
2021/06/07 01:34:13;;;;;;;15.83;12.70;;;18.40;99.90;;;;;;5131507;28;20399;-84
2021/06/07 01:36:39;;;;;;;13.43;12.27;;;18.40;99.90;;;;;;5131751;28;20170;-83
2021/06/07 01:39:05;;;;;;;14.00;12.50;;;18.40;99.90;;;;;;5109678;28;20174;-84
2021/06/07 01:41:31;;;;;;;21.70;13.40;;;18.30;99.90;;;;;;5130113;28;20199;-83
2021/06/07 01:43:57;;;;;;;15.50;11.67;;;18.40;99.90;;;;;;5131435;28;20392;-83
2021/06/07 01:46:23;;;;;;;12.73;11.57;;;18.40;99.90;;;;;;5131593;28;20514;-83
2021/06/07 01:48:49;;;;;;;14.63;13.10;;;18.30;99.90;;;;;;5131096;28;20217;-84
2021/06/07 01:51:14;;;;;;;13.90;12.50;;;18.30;99.90;;;;;;5109640;28;20212;-83
2021/06/07 01:53:41;;;;;;;13.47;12.07;;;18.30;99.90;;;;;;5131037;28;20243;-84
2021/06/07 01:56:09;;;;;;;14.03;12.10;;;18.30;99.90;;;;;;5131394;28;20173;-83
2021/06/07 01:58:36;;;;;;;12.30;11.10;;;18.30;99.90;;;;;;5113066;28;20802;-83
2021/06/07 02:01:14;;;;;;;13.73;10.50;;;18.30;99.90;;;;;;5131066;28;20384;-83
2021/06/07 02:03:41;;;;;;;14.63;13.10;;;18.30;99.90;;;;;;5122653;28;20391;-84
2021/06/07 02:06:09;;;;;;;12.67;11.47;;;18.30;99.90;;;;;;5131415;28;20773;-83
2021/06/07 02:08:36;;;;;;;15.00;11.83;;;18.30;99.90;;;;;;5130920;28;20434;-83
2021/06/07 02:11:08;;;;;;;15.23;12.40;;;18.30;99.90;;;;;;5109935;28;20389;-83
2021/06/07 02:13:34;;;;;;;15.23;12.60;;;18.30;99.90;;;;;;5111733;28;20395;-84
2021/06/07 02:16:05;;;;;;;13.80;12.40;;;18.30;99.90;;;;;;5109826;28;20468;-83
2021/06/07 02:18:35;;;;;;;15.03;13.63;;;18.30;99.90;;;;;;5130688;28;20405;-84
2021/06/07 02:21:02;;;;;;;21.43;12.10;;;18.30;99.90;;;;;;5132237;28;20431;-84
2021/06/07 02:23:29;;;;;;;14.40;12.30;;;18.30;99.90;;;;;;5112950;28;20421;-83
2021/06/07 02:25:57;;;;;;;13.33;12.03;;;18.30;99.90;;;;;;5131398;28;20836;-84
2021/06/07 02:28:24;;;;;;;12.67;11.40;;;18.30;99.90;;;;;;5131183;28;20388;-84
2021/06/07 02:30:50;;;;;;;14.50;12.20;;;18.30;99.90;;;;;;5092927;28;20401;-84
2021/06/07 02:33:17;;;;;;;13.77;12.37;;;18.30;99.90;;;;;;5128214;28;20396;-84
2021/06/07 02:35:44;;;;;;;15.47;13.97;;;18.30;99.90;;;;;;5130944;28;20392;-84
2021/06/07 02:38:10;;;;;;;17.10;14.37;;;18.30;99.90;;;;;;5137499;28;20391;-84
2021/06/07 02:40:37;;;;;;;16.47;14.87;;;18.30;99.90;;;;;;5118201;28;20392;-84
2021/06/07 02:43:05;;;;;;;16.50;14.93;;;18.30;99.90;;;;;;5114595;28;20396;-83
2021/06/07 02:45:32;;;;;;;17.13;13.53;;;18.30;99.90;;;;;;5135714;28;20395;-84
2021/06/07 02:48:00;;;;;;;16.33;14.53;;;18.30;99.90;;;;;;5136472;28;20462;-84
2021/06/07 02:50:31;;;;;;;16.23;13.63;;;18.30;99.90;;;;;;5114198;28;20395;-83
2021/06/07 02:52:57;;;;;;;15.90;14.40;;;18.30;99.90;;;;;;5133104;28;20796;-84
2021/06/07 02:55:26;;;;;;;16.73;14.97;;;18.30;99.90;;;;;;5131932;28;20392;-83
2021/06/07 02:57:53;;;;;;;18.27;14.63;;;18.30;99.90;;;;;;5130029;28;20398;-84
2021/06/07 03:00:25;;;;;;;17.00;15.27;;;18.30;99.90;;;;;;5130010;28;20392;-82
2021/06/07 03:02:51;;;;;;;18.90;15.40;;;18.30;99.90;;;;;;5108872;28;20392;-83
2021/06/07 03:05:16;;;;;;;16.50;14.60;;;18.20;99.90;;;;;;5127751;28;20404;-83
2021/06/07 03:07:42;;;;;;;18.90;16.03;;;18.20;99.90;;;;;;5108572;28;20293;-83
2021/06/07 03:10:10;;;;;;;20.30;17.53;;;18.20;99.90;;;;;;5126233;28;20158;-83
2021/06/07 03:12:36;;;;;;;17.47;15.63;;;18.30;99.90;;;;;;5112461;28;20204;-83
2021/06/07 03:15:04;;;;;;;18.13;16.10;;;18.30;99.90;;;;;;5108040;28;20495;-83
2021/06/07 03:17:30;;;;;;;21.10;16.30;;;18.30;99.90;;;;;;5128448;28;20404;-83
2021/06/07 03:19:56;;;;;;;18.57;15.97;;;18.30;99.90;;;;;;5129511;28;20398;-83
2021/06/07 03:22:22;;;;;;;17.73;15.93;;;18.30;99.90;;;;;;5109594;28;20226;-84
2021/06/07 03:24:51;;;;;;;17.00;15.17;;;18.30;99.90;;;;;;5129437;28;20164;-83
2021/06/07 03:27:18;;;;;;;19.93;16.20;;;18.30;99.90;;;;;;5128762;28;20450;-83
2021/06/07 03:29:45;;;;;;;19.70;15.70;;;18.30;99.90;;;;;;5129219;28;20384;-83
2021/06/07 03:32:11;;;;;;;19.67;16.33;;;18.30;99.90;;;;;;5129457;28;20508;-83
2021/06/07 03:34:38;;;;;;;18.17;16.17;;;18.20;99.90;;;;;;5086330;28;20391;-83
2021/06/07 03:37:05;;;;;;;21.13;17.17;;;18.30;99.90;;;;;;5128900;28;20400;-83
2021/06/07 03:39:32;;;;;;;21.53;17.57;;;18.30;99.90;;;;;;5129316;28;20487;-83
2021/06/07 03:41:58;;;;;;;19.33;17.30;;;18.30;99.90;;;;;;5107598;28;20420;-83
2021/06/07 03:44:24;;;;;;;24.53;19.20;;;18.30;99.90;;;;;;5127074;28;20390;-83
2021/06/07 03:46:50;;;;;;;22.90;18.00;;;18.30;99.90;;;;;;5128909;28;20467;-83
2021/06/07 03:49:16;;;;;;;29.20;20.40;;;18.30;99.90;;;;;;5128546;28;20180;-83
2021/06/07 03:51:42;;;;;;;29.70;19.23;;;18.30;99.90;;;;;;5129279;28;20380;-83
2021/06/07 03:54:08;;;;;;;28.23;20.10;;;18.30;99.90;;;;;;5128613;28;20653;-83
2021/06/07 03:56:34;;;;;;;26.47;19.90;;;18.30;99.90;;;;;;5128845;28;20196;-84
2021/06/07 03:59:00;;;;;;;25.23;19.80;;;18.30;99.90;;;;;;5128824;28;20396;-83
2021/06/07 04:01:26;;;;;;;25.63;19.87;;;18.40;99.90;;;;;;5110625;28;20162;-84
2021/06/07 04:03:52;;;;;;;26.30;21.20;;;18.40;99.90;;;;;;5128407;28;20157;-83
2021/06/07 04:06:19;;;;;;;25.63;20.40;;;18.30;99.90;;;;;;5094020;28;20439;-83
2021/06/07 04:08:45;;;;;;;29.80;20.70;;;18.40;99.90;;;;;;5128871;28;20193;-83
2021/06/07 04:11:11;;;;;;;26.00;19.03;;;18.40;99.90;;;;;;5128783;28;20736;-83
2021/06/07 04:13:37;;;;;;;30.33;22.80;;;18.40;99.90;;;;;;5111161;28;20155;-84
2021/06/07 04:16:04;;;;;;;28.70;23.53;;;18.40;99.90;;;;;;5128511;28;20192;-84
2021/06/07 04:18:31;;;;;;;32.53;24.30;;;18.40;99.90;;;;;;5128705;28;20407;-83
2021/06/07 04:20:57;;;;;;;29.13;21.47;;;18.40;99.90;;;;;;5129248;28;20482;-84
2021/06/07 04:23:23;;;;;;;33.43;20.90;;;18.40;99.90;;;;;;5110887;28;20400;-83
2021/06/07 04:25:51;;;;;;;25.80;19.40;;;18.40;99.90;;;;;;5128588;28;20420;-84
2021/06/07 04:28:16;;;;;;;26.40;19.77;;;18.40;99.90;;;;;;5126954;28;20500;-83
2021/06/07 04:30:43;;;;;;;24.23;20.47;;;18.40;99.90;;;;;;5128917;28;20399;-83
2021/06/07 04:33:09;;;;;;;28.50;21.20;;;18.40;99.90;;;;;;5129111;28;20165;-83
2021/06/07 04:35:35;;;;;;;29.27;22.27;;;18.40;99.90;;;;;;5110358;28;20396;-84
2021/06/07 04:38:03;;;;;;;27.97;19.87;;;18.40;99.90;;;;;;5113243;28;20466;-82
2021/06/07 04:40:32;;;;;;;32.10;21.07;;;18.30;99.90;;;;;;5132669;28;20766;-83
2021/06/07 04:43:00;;;;;;;26.93;20.70;;;18.30;99.90;;;;;;5132561;28;20400;-83
2021/06/07 04:45:27;;;;;;;28.50;20.90;;;18.30;99.90;;;;;;5133126;28;20429;-83
2021/06/07 04:47:53;;;;;;;29.40;21.37;;;18.30;99.90;;;;;;5130981;28;20467;-82
2021/06/07 04:50:21;;;;;;;29.87;20.30;;;18.30;99.90;;;;;;5131846;28;20391;-83
2021/06/07 04:55:32;;;;;;;29.03;20.87;;;18.40;99.90;;;;;;5132692;28;20410;-82
2021/06/07 04:58:01;;;;;;;24.07;18.93;;;18.40;99.90;;;;;;5114623;28;20396;-82
2021/06/07 05:00:27;;;;;;;29.90;21.03;;;18.40;99.90;;;;;;5114699;28;20403;-83
2021/06/07 05:02:54;;;;;;;27.13;19.47;;;18.40;99.90;;;;;;5133362;28;20435;-82
2021/06/07 05:05:21;;;;;;;27.90;19.07;;;18.40;99.90;;;;;;5134881;28;20396;-83
2021/06/07 05:07:47;;;;;;;29.37;20.87;;;18.50;99.90;;;;;;5131095;28;20466;-82
2021/06/07 05:10:14;;;;;;;29.43;19.13;;;18.40;99.90;;;;;;5131491;28;20477;-83
2021/06/07 05:12:39;;;;;;;26.20;18.50;;;18.50;99.90;;;;;;5114302;28;20399;-82
2021/06/07 05:15:07;;;;;;;26.83;18.37;;;18.50;99.90;;;;;;5131760;28;20419;-82
2021/06/07 05:17:36;;;;;;;26.27;20.50;;;18.40;99.90;;;;;;5089815;28;20187;-83
2021/06/07 05:20:06;;;;;;;23.07;19.47;;;18.40;99.90;;;;;;5089234;28;20993;-82
2021/06/07 05:22:32;;;;;;;24.50;19.30;;;18.50;99.90;;;;;;5093519;28;20453;-82
2021/06/07 05:25:04;;;;;;;26.73;21.17;;;18.50;99.90;;;;;;5093638;28;20406;-82
2021/06/07 05:27:29;;;;;;;25.57;19.60;;;18.50;99.90;;;;;;5072889;28;20501;-82
2021/06/07 05:29:55;;;;;;;28.33;20.50;;;18.50;99.90;;;;;;5096617;28;20445;-83
2021/06/07 05:32:21;;;;;;;29.80;20.47;;;18.50;99.90;;;;;;5092637;28;20202;-83
2021/06/07 05:34:47;;;;;;;24.53;20.10;;;18.50;99.90;;;;;;5088071;28;20191;-83
2021/06/07 05:37:16;;;;;;;21.43;19.00;;;18.50;99.90;;;;;;5059820;28;20187;-83
2021/06/07 05:39:42;;;;;;;27.83;20.43;;;18.60;99.90;;;;;;5079072;28;20176;-82
2021/06/07 05:42:10;;;;;;;30.43;20.03;;;18.60;99.90;;;;;;5068678;28;20410;-81
2021/06/07 05:44:36;;;;;;;23.23;17.90;;;18.50;99.90;;;;;;5056312;28;20500;-80
2021/06/07 05:47:02;;;;;;;15.30;13.40;;;18.50;99.90;;;;;;5071147;28;20453;-80
2021/06/07 05:49:28;;;;;;;20.83;14.90;;;19.00;99.90;;;;;;5108898;28;20227;-80
2021/06/07 05:51:53;;;;;;;23.80;15.23;;;19.40;99.90;;;;;;5130637;28;20396;-80
2021/06/07 05:54:19;;;;;;;24.27;17.80;;;19.60;99.90;;;;;;5119679;28;20175;-79
2021/06/07 05:56:45;;;;;;;25.40;16.33;;;19.70;99.90;;;;;;5141050;27;20177;-78
2021/06/07 05:59:11;;;;;;;26.93;19.20;;;20.00;99.90;;;;;;5110394;28;20174;-81
2021/06/07 06:01:37;;;;;;;20.70;17.30;;;19.70;99.90;;;;;;5122558;28;20198;-83
2021/06/07 06:04:03;;;;;;;25.67;18.30;;;19.50;99.90;;;;;;5119503;28;20436;-82
2021/06/07 06:06:31;;;;;;;23.60;17.70;;;19.40;99.90;;;;;;5113968;28;20482;-82
2021/06/07 06:08:57;;;;;;;25.00;19.43;;;19.30;99.90;;;;;;5131487;28;20451;-82
2021/06/07 06:11:23;;;;;;;22.53;18.30;;;19.20;99.90;;;;;;5096232;28;20463;-83
2021/06/07 06:13:49;;;;;;;20.67;17.40;;;19.10;99.90;;;;;;5119954;28;20173;-83
2021/06/07 06:16:19;;;;;;;24.07;18.63;;;19.00;99.90;;;;;;5122559;28;20180;-83
2021/06/07 06:18:46;;;;;;;26.07;18.33;;;19.00;99.90;;;;;;5112678;28;20436;-83
2021/06/07 06:21:13;;;;;;;21.80;17.80;;;19.00;99.90;;;;;;5114417;28;20456;-82
2021/06/07 06:23:39;;;;;;;20.30;17.20;;;19.00;99.90;;;;;;5103728;28;20451;-83
2021/06/07 06:26:07;;;;;;;26.67;19.43;;;19.00;99.90;;;;;;5102832;28;20459;-82
2021/06/07 06:28:35;;;;;;;25.07;18.60;;;18.90;99.90;;;;;;5098721;28;20420;-82
2021/06/07 06:31:03;;;;;;;24.20;18.43;;;19.00;99.90;;;;;;5107760;28;20408;-82
2021/06/07 06:33:29;;;;;;;25.60;18.67;;;18.90;99.90;;;;;;5079183;28;20461;-82
2021/06/07 06:35:55;;;;;;;23.00;18.43;;;19.00;99.90;;;;;;5118143;28;20447;-83
2021/06/07 06:38:20;;;;;;;24.53;17.43;;;19.00;99.90;;;;;;5117063;28;20892;-83
2021/06/07 06:40:47;;;;;;;22.67;19.70;;;19.10;99.90;;;;;;5119426;28;20190;-83
2021/06/07 06:43:13;;;;;;;23.20;18.30;;;19.10;99.90;;;;;;5116885;28;20189;-82
2021/06/07 06:45:40;;;;;;;22.97;17.93;;;19.10;99.90;;;;;;5121690;28;20868;-82
2021/06/07 06:48:06;;;;;;;25.67;18.03;;;19.10;99.90;;;;;;5104207;28;20322;-83
2021/06/07 06:50:37;;;;;;;21.47;16.77;;;19.10;99.90;;;;;;5073720;28;20415;-84
2021/06/07 06:53:05;;;;;;;22.97;17.90;;;19.10;99.90;;;;;;5112486;28;20422;-84
2021/06/07 06:55:32;;;;;;;22.20;16.33;;;19.20;99.90;;;;;;5108880;28;20416;-81
2021/06/07 06:57:57;;;;;;;19.23;13.77;;;19.40;99.90;;;;;;5086146;28;20423;-81
2021/06/07 07:00:24;;;;;;;15.93;14.23;;;19.60;99.90;;;;;;5112003;28;20428;-81
2021/06/07 07:02:50;;;;;;;23.43;14.50;;;20.00;99.90;;;;;;5107259;28;20528;-81
2021/06/07 07:05:16;;;;;;;17.10;14.47;;;20.40;99.90;;;;;;5112551;28;20475;-81
2021/06/07 07:07:42;;;;;;;15.63;12.20;;;20.60;99.90;;;;;;5128519;28;20205;-81
2021/06/07 07:10:09;;;;;;;16.83;13.83;;;20.90;99.90;;;;;;5129214;28;20260;-81
2021/06/07 07:12:36;;;;;;;16.13;12.67;;;21.20;99.90;;;;;;5121423;28;20438;-81
2021/06/07 07:15:04;;;;;;;17.23;13.53;;;21.30;99.90;;;;;;5110656;28;20436;-82
2021/06/07 07:17:30;;;;;;;15.63;11.07;;;21.40;99.90;;;;;;5128328;28;20430;-82
2021/06/07 07:19:56;;;;;;;16.50;13.30;;;21.60;99.90;;;;;;5092719;28;20479;-81
2021/06/07 07:22:23;;;;;;;18.07;13.20;;;21.60;99.90;;;;;;5130127;28;20419;-81
2021/06/07 07:24:49;;;;;;;19.20;13.40;;;21.70;99.90;;;;;;5112558;28;20166;-81
2021/06/07 07:27:24;;;;;;;16.23;11.37;;;21.60;99.90;;;;;;5119375;28;20450;-81
2021/06/07 07:29:50;;;;;;;14.70;11.27;;;21.60;99.90;;;;;;5078920;28;20408;-81
2021/06/07 07:32:16;;;;;;;14.17;12.27;;;21.70;99.90;;;;;;5106385;28;20445;-81
2021/06/07 07:34:42;;;;;;;14.27;12.20;;;21.80;99.90;;;;;;5098908;28;20484;-81
2021/06/07 07:37:10;;;;;;;17.00;13.03;;;21.70;99.90;;;;;;5119677;28;20413;-81
2021/06/07 07:39:36;;;;;;;13.13;11.67;;;21.80;99.90;;;;;;5112289;28;20416;-78
2021/06/07 07:42:06;;;;;;;14.73;11.67;;;21.80;99.90;;;;;;5120192;28;20425;-80
2021/06/07 07:44:36;;;;;;;14.83;12.17;;;22.00;99.90;;;;;;5098224;28;20462;-81
2021/06/07 07:47:05;;;;;;;13.23;11.80;;;22.10;99.90;;;;;;5093743;28;20462;-81
2021/06/07 07:49:31;;;;;;;18.60;11.17;;;22.10;99.90;;;;;;5100474;28;20407;-79
2021/06/07 07:51:57;;;;;;;13.50;11.43;;;22.30;99.90;;;;;;5119182;28;20447;-79
2021/06/07 07:54:23;;;;;;;10.83;8.30;;;22.30;99.90;;;;;;5122588;28;20220;-81
2021/06/07 07:56:49;;;;;;;13.53;12.07;;;22.30;99.90;;;;;;5127686;28;20166;-81
2021/06/07 07:59:15;;;;;;;16.70;13.00;;;22.30;99.90;;;;;;5121939;28;20412;-81
2021/06/07 08:01:42;;;;;;;17.40;11.77;;;22.30;99.90;;;;;;5123897;28;20213;-79
2021/06/07 08:04:08;;;;;;;11.93;9.87;;;22.20;99.90;;;;;;5125416;28;20173;-80
2021/06/07 08:06:34;;;;;;;15.70;13.17;;;22.10;99.90;;;;;;5111316;28;20480;-80
2021/06/07 08:09:03;;;;;;;13.97;12.43;;;22.10;99.90;;;;;;5113876;28;20812;-80
2021/06/07 08:11:29;;;;;;;12.50;11.10;;;22.10;99.90;;;;;;5098735;28;20414;-80
2021/06/07 08:13:55;;;;;;;15.20;13.07;;;22.20;99.90;;;;;;5133660;28;20411;-80
2021/06/07 08:16:21;;;;;;;15.50;13.50;;;22.10;99.90;;;;;;5132072;28;20185;-80
2021/06/07 08:18:47;;;;;;;13.07;11.70;;;20.40;99.90;;;;;;5114214;28;20245;-80
2021/06/07 08:21:13;;;;;;;13.37;11.37;;;21.10;99.90;;;;;;5134079;28;20836;-80
2021/06/07 08:23:39;;;;;;;16.43;14.30;;;21.10;99.90;;;;;;5141637;27;20236;-80
2021/06/07 08:26:06;;;;;;;11.40;10.20;;;21.00;99.90;;;;;;5134495;27;20463;-80
2021/06/07 08:28:32;;;;;;;17.93;12.80;;;21.40;99.90;;;;;;5115045;28;20186;-80
2021/06/07 08:30:57;;;;;;;12.97;11.63;;;21.80;99.90;;;;;;5133509;28;20503;-80
2021/06/07 08:33:23;;;;;;;14.43;12.37;;;22.10;99.90;;;;;;5115066;28;20510;-80
2021/06/07 08:35:50;;;;;;;15.10;9.37;;;22.30;99.90;;;;;;5132898;28;20668;-82
2021/06/07 08:38:17;;;;;;;12.87;11.57;;;22.50;99.90;;;;;;5131226;28;20189;-82
2021/06/07 08:40:47;;;;;;;12.10;10.80;;;22.70;99.90;;;;;;5101210;28;20752;-79
2021/06/07 08:43:13;;;;;;;19.80;14.33;;;22.90;99.90;;;;;;5109479;28;20492;-80
2021/06/07 08:45:39;;;;;;;15.50;13.17;;;22.40;99.90;;;;;;5125634;28;20423;-80
2021/06/07 08:48:14;;;;;;;13.53;11.93;;;22.70;99.90;;;;;;5132322;28;20478;-80
2021/06/07 08:50:40;;;;;;;15.50;13.20;;;22.70;99.90;;;;;;5115236;28;20165;-79
2021/06/07 08:53:06;;;;;;;13.73;12.30;;;21.70;99.90;;;;;;5102086;28;20478;-81
2021/06/07 08:55:34;;;;;;;14.97;11.03;;;21.80;99.90;;;;;;5118502;28;20166;-79
2021/06/07 08:58:05;;;;;;;13.00;11.70;;;22.00;99.90;;;;;;5114799;28;20412;-79
2021/06/07 09:00:35;;;;;;;15.80;12.97;;;22.60;99.90;;;;;;5108879;28;20463;-79
2021/06/07 09:03:06;;;;;;;16.57;14.40;;;22.30;99.90;;;;;;5104432;28;20519;-79
2021/06/07 09:05:33;;;;;;;15.43;9.30;;;21.30;99.90;;;;;;5131488;28;20415;-82
2021/06/07 09:08:08;;;;;;;13.83;10.83;;;21.50;99.90;;;;;;5101107;28;20508;-80
2021/06/07 09:10:39;;;;;;;11.70;10.50;;;22.00;99.90;;;;;;5126082;28;20925;-80
2021/06/07 09:13:07;;;;;;;13.07;11.77;;;22.60;99.90;;;;;;5114293;28;20420;-80
2021/06/07 09:15:40;;;;;;;12.70;11.43;;;22.60;99.90;;;;;;5096182;28;20408;-80
2021/06/07 09:18:10;;;;;;;13.20;11.90;;;23.10;99.90;;;;;;5118511;28;20438;-79
2021/06/07 09:20:39;;;;;;;15.87;11.90;;;23.20;99.90;;;;;;5102866;28;20424;-80
2021/06/07 09:23:09;;;;;;;14.10;12.60;;;22.90;99.90;;;;;;5100360;28;20972;-80
2021/06/07 09:25:38;;;;;;;12.20;10.77;;;22.20;99.90;;;;;;5079956;28;20457;-79
2021/06/07 09:28:21;;;;;;;11.60;10.50;;;22.60;99.90;;;;;;5090793;28;20455;-80
2021/06/07 09:30:56;;;;;;;11.63;10.53;;;23.00;99.90;;;;;;5113680;28;20472;-80
2021/06/07 09:33:26;;;;;;;11.60;10.40;;;23.10;99.90;;;;;;5040281;28;20451;-79
2021/06/07 09:36:27;;;;;;;13.60;11.70;;;23.20;99.90;;;;;;5040323;28;20443;-79
2021/06/07 09:39:16;;;;;;;14.90;11.27;;;22.80;99.90;;;;;;5037636;28;20395;-80
2021/06/07 09:42:14;;;;;;;14.17;11.63;;;22.20;99.90;;;;;;5052822;28;20494;-81
2021/06/07 09:44:53;;;;;;;13.67;10.80;;;22.20;99.90;;;;;;5034075;28;20424;-80
2021/06/07 09:47:23;;;;;;;12.30;10.87;;;22.10;99.90;;;;;;5050410;28;20454;-79
2021/06/07 09:50:05;;;;;;;12.03;10.93;;;21.90;99.90;;;;;;5031674;28;20499;-80
2021/06/07 09:52:45;;;;;;;14.70;11.90;;;21.90;99.90;;;;;;5059421;28;20580;-80
2021/06/07 09:55:17;;;;;;;13.57;12.17;;;21.90;99.90;;;;;;5068790;28;20479;-81
2021/06/07 09:57:49;;;;;;;13.40;12.00;;;21.60;99.90;;;;;;5052033;28;20425;-82
2021/06/07 10:00:35;;;;;;;11.90;10.50;;;21.50;99.90;;;;;;5073075;28;20488;-81
2021/06/07 10:03:21;;;;;;;13.00;11.60;;;21.70;99.90;;;;;;5068583;28;20474;-82
2021/06/07 10:05:49;;;;;;;12.33;10.50;;;21.70;99.90;;;;;;5115707;28;20439;-81
2021/06/07 10:08:15;;;;;;;16.90;15.30;;;21.80;99.90;;;;;;5119384;28;20433;-81
2021/06/07 10:10:43;;;;;;;13.80;11.33;;;21.70;99.90;;;;;;5111850;28;20373;-81
2021/06/07 10:13:11;;;;;;;13.20;12.00;;;21.90;99.90;;;;;;5127253;27;20420;-81
2021/06/07 10:15:42;;;;;;;17.33;13.23;;;22.00;99.90;;;;;;5105446;28;20392;-79
2021/06/07 10:18:11;;;;;;;15.20;12.80;;;21.80;99.90;;;;;;5118105;28;20452;-80
2021/06/07 10:23:28;;;;;;;16.30;11.97;;;21.90;99.90;;;;;;5131487;28;20402;-82
2021/06/07 10:25:57;;;;;;;13.30;11.90;;;22.00;99.90;;;;;;5128361;28;20563;-79
2021/06/07 10:28:30;;;;;;;17.17;14.03;;;21.80;99.90;;;;;;5118732;27;20423;-80
2021/06/07 10:30:58;;;;;;;13.47;12.17;;;21.90;99.90;;;;;;5123845;27;20453;-82
2021/06/07 10:33:41;;;;;;;13.03;11.73;;;21.70;99.90;;;;;;5112894;28;20788;-79
2021/06/07 10:36:29;;;;;;;16.50;14.80;;;21.90;99.90;;;;;;5129554;28;20430;-83
2021/06/07 10:39:24;;;;;;;12.13;10.83;;;21.80;99.90;;;;;;5066500;28;20426;-83
2021/06/07 10:42:16;;;;;;;13.10;11.80;;;22.20;99.90;;;;;;5069539;28;20435;-83
2021/06/07 10:44:45;;;;;;;13.33;9.50;;;22.50;99.90;;;;;;5070566;28;20426;-82
2021/06/07 10:47:17;;;;;;;13.00;10.43;;;22.80;99.90;;;;;;5070323;28;20536;-82
2021/06/07 10:50:06;;;;;;;13.00;11.70;;;23.10;99.90;;;;;;5078378;28;20469;-81
2021/06/07 10:52:51;;;;;;;12.27;11.07;;;23.10;99.90;;;;;;5045925;28;20410;-80
2021/06/07 10:55:25;;;;;;;12.30;11.03;;;23.20;99.90;;;;;;5052904;28;20438;-82
2021/06/07 10:57:56;;;;;;;14.20;12.17;;;22.90;99.90;;;;;;5047997;28;20403;-82
2021/06/07 11:00:27;;;;;;;12.13;10.97;;;23.00;99.90;;;;;;5044939;28;20453;-82
2021/06/07 11:02:57;;;;;;;14.07;12.40;;;23.00;99.90;;;;;;5059893;28;20421;-81
2021/06/07 11:05:38;;;;;;;12.57;11.33;;;23.10;99.90;;;;;;5044050;28;20520;-81
2021/06/07 11:08:17;;;;;;;14.70;11.50;;;23.30;99.90;;;;;;5053685;28;20469;-81
2021/06/07 11:10:59;;;;;;;13.70;12.30;;;23.30;99.90;;;;;;5088580;28;20420;-81
2021/06/07 11:13:29;;;;;;;12.03;10.90;;;23.80;99.90;;;;;;5121786;28;20491;-81
2021/06/07 11:15:57;;;;;;;13.00;11.73;;;23.40;99.90;;;;;;5103192;28;20583;-80
2021/06/07 11:18:38;;;;;;;12.37;10.43;;;23.10;99.90;;;;;;5104871;28;20421;-81
2021/06/07 11:21:26;;;;;;;15.53;10.33;;;23.40;99.90;;;;;;5087860;28;20413;-82
2021/06/07 11:23:52;;;;;;;13.33;11.90;;;23.40;99.90;;;;;;5085512;28;20480;-82
2021/06/07 11:26:25;;;;;;;12.07;10.90;;;23.30;99.90;;;;;;5078754;28;20472;-83
2021/06/07 11:29:08;;;;;;;13.60;12.20;;;23.30;99.90;;;;;;5083879;28;20599;-82
2021/06/07 11:31:43;;;;;;;12.73;11.50;;;23.00;99.90;;;;;;5105987;28;20415;-82
2021/06/07 11:34:13;;;;;;;12.30;11.10;;;23.30;99.90;;;;;;5089016;28;20403;-81
2021/06/07 11:36:59;;;;;;;13.07;11.77;;;23.90;99.90;;;;;;5071053;28;20404;-79
2021/06/07 11:39:28;;;;;;;12.13;9.87;;;24.40;99.90;;;;;;5071080;28;20439;-80
2021/06/07 11:42:03;;;;;;;11.90;10.70;;;24.60;99.90;;;;;;5088040;28;20439;-80
2021/06/07 11:44:50;;;;;;;15.10;11.00;;;24.30;99.90;;;;;;5068493;28;20952;-80
2021/06/07 11:47:20;;;;;;;11.97;10.77;;;24.40;99.90;;;;;;5066460;28;20487;-78
2021/06/07 11:50:03;;;;;;;13.90;10.83;;;24.40;99.90;;;;;;5065395;28;20409;-79
2021/06/07 11:52:51;;;;;;;12.67;11.37;;;24.50;99.90;;;;;;5049230;28;20530;-79
2021/06/07 11:55:32;;;;;;;12.70;11.27;;;24.70;99.90;;;;;;5079044;28;20394;-80
2021/06/07 11:58:16;;;;;;;14.00;12.30;;;24.50;99.90;;;;;;5065723;28;20995;-82
2021/06/07 12:00:45;;;;;;;12.53;11.33;;;24.70;99.90;;;;;;5083545;28;20413;-82
2021/06/07 12:03:13;;;;;;;16.03;12.07;;;24.90;99.90;;;;;;5049473;28;20496;-81
2021/06/07 12:05:40;;;;;;;13.57;10.97;;;25.00;99.90;;;;;;5033344;28;20413;-81
2021/06/07 12:08:09;;;;;;;12.33;11.07;;;24.90;99.90;;;;;;5075951;28;20453;-81
2021/06/07 12:10:36;;;;;;;12.57;11.37;;;25.10;99.90;;;;;;5066220;28;20400;-81
2021/06/07 12:13:18;;;;;;;11.47;10.33;;;25.00;99.90;;;;;;5083212;28;20591;-81
2021/06/07 12:15:50;;;;;;;12.70;11.37;;;25.00;99.90;;;;;;5081429;28;20408;-82
2021/06/07 12:18:30;;;;;;;12.00;10.90;;;25.30;99.90;;;;;;5088920;28;20424;-82
2021/06/07 12:21:05;;;;;;;14.13;10.30;;;25.80;99.90;;;;;;5073590;28;20396;-81
2021/06/07 12:23:34;;;;;;;11.53;10.43;;;26.10;99.90;;;;;;5074150;28;20487;-82
2021/06/07 12:28:52;;;;;;;12.53;11.23;;;26.40;99.90;;;;;;5109915;28;20526;-82
2021/06/07 12:31:23;;;;;;;12.37;10.50;;;26.50;99.90;;;;;;5096142;28;20428;-81
2021/06/07 12:33:49;;;;;;;13.03;11.90;;;26.60;99.90;;;;;;5110060;28;20172;-82
2021/06/07 12:36:15;;;;;;;11.90;10.67;;;26.80;99.90;;;;;;5109775;28;20431;-83
2021/06/07 12:38:42;;;;;;;10.90;10.00;;;26.40;99.90;;;;;;5109824;28;20161;-83
2021/06/07 12:41:08;;;;;;;11.47;10.40;;;27.00;99.90;;;;;;5105816;28;20568;-81
2021/06/07 12:43:41;;;;;;;11.00;9.97;;;26.60;99.90;;;;;;5113172;28;20435;-81
2021/06/07 12:46:08;;;;;;;12.00;10.50;;;26.70;99.90;;;;;;5072659;28;20392;-83